Friday, November 17, 2017, 4:16 PM EST
Back to Local

KBUF, Greater Buffalo International Airport

Location: Buffalo, NY, United States Lat: 42.933
Local Time: 4:16 PM EST (21:16 GMT) Lon: -78.733
Time Zone: US/Eastern Elev: 725 ft

Show me the last for .
Show Decoded

2017-11-17 15:54 METAR KBUF 172054Z 18004KT 10SM FEW024 FEW110 FEW160 FEW210 FEW260 02/M02 A3011
                 RMK AO2 SLP206 T00221022 58030 =
2017-11-17 14:54 METAR KBUF 171954Z 25003KT 10SM FEW026 FEW110 FEW160 FEW210 SCT260 02/M03 A3015
                 RMK AO2 SLP219 T00171033 =
2017-11-17 13:54 METAR KBUF 171854Z COR 24006KT 10SM FEW024 FEW160 FEW220 BKN260 01/M04 A3018 RMK
                 AO2 SLP230 T00061044 =
2017-11-17 12:54 METAR KBUF 171754Z 24008KT 10SM SCT024 SCT170 BKN220 BKN270 01/M05 A3020 RMK AO2
                 SLP237 T00061050 10017 21011 56015 =
2017-11-17 12:52 METAR KBUF 171752Z 22007KT 10SM SCT024 SCT170 BKN220 BKN270 01/M05 A3021 RMK AO2
                 =
2017-11-17 11:54 METAR KBUF 171654Z 28004KT 10SM BKN023 BKN250 00/M05 A3022 RMK AO2 SLP242
                 T00001050 =
2017-11-17 10:54 METAR KBUF 171554Z 30004KT 10SM BKN023 00/M06 A3025 RMK AO2 SLP252 T00001056 =
2017-11-17 09:54 METAR KBUF 171454Z 34006KT 10SM BKN022 M01/M06 A3026 RMK AO2 SLP257 T10061056
                 50009 =
2017-11-17 08:54 METAR KBUF 171354Z 35005KT 10SM BKN021 M01/M06 A3027 RMK AO2 SLP259 T10111056 =
2017-11-17 07:54 METAR KBUF 171254Z 32007KT 10SM OVC022 M01/M06 A3026 RMK AO2 SLP255 T10061056 =
2017-11-17 06:54 METAR KBUF 171154Z 31008KT 10SM OVC024 M01/M06 A3023 RMK AO2 SLP247 60000
                 T10061056 10011 21011 53012 =
2017-11-17 05:54 METAR KBUF 171054Z 33009KT 10SM OVC024 00/M05 A3022 RMK AO2 SLP239 T00001050 =
2017-11-17 04:54 METAR KBUF 170954Z 31009KT 10SM OVC022 00/M04 A3021 RMK AO2 SLP237 SNB09E19
                 P0000 T00001039 =
2017-11-17 03:54 METAR KBUF 170854Z 31010G16KT 10SM UP OVC024 01/M04 A3020 RMK AO2 UPB54 SLP234
                 P0000 60000 T00061039 51021 =
2017-11-17 02:54 METAR KBUF 170754Z 10SM OVC019 01/M03 A3018 RMK AO2 SLP229 T00061033 =
2017-11-17 01:54 METAR KBUF 170654Z 31009KT 10SM OVC021 01/M03 A3016 RMK AO2 SLP221 T00111033 =
2017-11-17 00:54 METAR KBUF 170554Z 30014KT 10SM OVC021 01/M03 A3014 RMK AO2 SLP213 T00111028
                 10039 20011 53018 =
2017-11-16 23:54 METAR KBUF 170454Z 32012KT 10SM OVC024 02/M03 A3012 RMK AO2 SLP206 T00171028
                 400890017 =
2017-11-16 22:54 METAR KBUF 170354Z 32011KT 10SM OVC026 02/M03 A3010 RMK AO2 SLP200 T00221028 =
2017-11-16 21:54 METAR KBUF 170254Z 31011G19KT 10SM OVC028 02/M03 A3009 RMK AO2 SLP194 T00221028
                 53026 =
2017-11-16 21:45 METAR KBUF 170245Z 30014G23KT 10SM OVC028 03/M03 A3008 RMK AO2 T00281028 =
2017-11-16 20:54 METAR KBUF 170154Z 31013G23KT 10SM FEW024 OVC034 03/M03 A3006 RMK AO2 SLP184
                 T00281028 =
2017-11-16 20:15 METAR KBUF 170115Z 29016G22KT 10SM FEW028 OVC037 03/M03 A3005 RMK AO2 T00331028
                 =
2017-11-16 19:54 METAR KBUF 170054Z 31014G22KT 10SM BKN029 OVC035 04/M02 A3004 RMK AO2 SLP177
                 T00391022 =
2017-11-16 18:54 METAR KBUF 162354Z 30012G21KT 10SM BKN023 BKN030 BKN048 04/M01 A3001 RMK AO2 PK
                 WND 30026/2322 SLP167 60000 T00391006 10061 20039 53038 =
2017-11-16 18:43 METAR KBUF 162343Z 30014G19KT 10SM BKN027 BKN037 OVC048 04/M01 A3000 RMK AO2 PK
                 WND 30026/2322 T00391006 =
2017-11-16 17:54 METAR KBUF 162254Z 29015G25KT 10SM FEW020 BKN039 OVC055 04/M01 A2997 RMK AO2 PK
                 WND 30029/2244 SLP154 T00441006 =
2017-11-16 16:54 METAR KBUF 162154Z 29011G20KT 10SM FEW023 BKN033 OVC055 05/01 A2993 RMK AO2 PK
                 WND 30026/2127 RAB27E42 SLP140 P0000 T00500006 =

Support USWX by starting your Amazon purchase here.